createdAt,value
2022-10-17T00:00:47.256Z,120.50
2022-10-17T00:03:16.086Z,120.70
2022-10-17T00:05:46.879Z,75.67
2022-10-17T00:08:16.364Z,226.53
2022-10-17T00:10:46.207Z,79.97
2022-10-17T00:13:14.263Z,150.33
2022-10-17T00:15:45.944Z,113.80
2022-10-17T00:18:14.012Z,188.27
2022-10-17T00:20:42.529Z,163.73
2022-10-17T00:23:10.758Z,162.07
2022-10-17T00:25:38.815Z,173.50
2022-10-17T00:28:10.048Z,202.03
2022-10-17T00:30:38.075Z,192.27
2022-10-17T00:33:06.382Z,122.83
2022-10-17T00:35:34.855Z,210.87
2022-10-17T00:38:02.931Z,212.27
2022-10-17T00:40:32.904Z,207.10
2022-10-17T00:43:03.797Z,114.13
2022-10-17T00:45:33.304Z,277.53
2022-10-17T00:48:06.298Z,310.83
2022-10-17T00:50:36.219Z,220.73
2022-10-17T00:53:06.692Z,242.30
2022-10-17T00:55:38.231Z,167.50
2022-10-17T00:58:07.564Z,90.50
2022-10-17T01:00:37.087Z,119.13
2022-10-17T01:03:05.552Z,130.67
2022-10-17T01:05:33.976Z,139.53
2022-10-17T01:08:02.382Z,135.00
2022-10-17T01:10:35.977Z,96.13
2022-10-17T01:13:12.787Z,92.70
2022-10-17T01:15:52.768Z,93.33
2022-10-17T01:18:32.182Z,153.30
2022-10-17T01:21:20.384Z,103.50
2022-10-17T01:24:22.615Z,108.30
2022-10-17T01:27:23.887Z,81.50
2022-10-17T01:30:27.631Z,90.70
2022-10-17T01:33:03.763Z,87.93
2022-10-17T01:35:40.739Z,91.03
2022-10-17T01:38:12.730Z,97.87
2022-10-17T01:40:46.180Z,88.87
2022-10-17T01:43:19.264Z,141.20
2022-10-17T01:45:52.712Z,157.90
2022-10-17T01:48:25.871Z,105.27
2022-10-17T01:51:04.936Z,114.60
2022-10-17T01:53:37.426Z,85.30
2022-10-17T01:56:09.913Z,90.87
2022-10-17T01:58:44.406Z,120.13
2022-10-17T02:01:14.586Z,91.03
2022-10-17T02:03:46.147Z,66.67
2022-10-17T02:06:14.279Z,86.90
2022-10-17T02:08:45.111Z,73.43
2022-10-17T02:11:16.706Z,190.37
2022-10-17T02:16:52.327Z,100.40
2022-10-17T02:19:52.190Z,167.57
2022-10-17T02:22:31.454Z,150.23
2022-10-17T02:25:08.150Z,83.63
2022-10-17T02:27:44.862Z,91.73
2022-10-17T02:30:17.968Z,97.43
2022-10-17T02:32:52.381Z,131.23
2022-10-17T02:35:23.774Z,150.93
2022-10-17T02:37:53.255Z,112.83
2022-10-17T02:40:26.115Z,169.20
2022-10-17T02:43:02.168Z,87.30
2022-10-17T02:45:36.105Z,86.17
2022-10-17T02:48:07.019Z,84.47
2022-10-17T02:50:45.645Z,88.97
2022-10-17T02:53:16.311Z,109.80
2022-10-17T02:55:51.615Z,93.17
2022-10-17T02:58:25.058Z,184.63
2022-10-17T03:00:54.329Z,99.43
2022-10-17T03:03:24.245Z,164.90
2022-10-17T03:05:53.931Z,104.63
2022-10-17T03:08:22.805Z,150.90
2022-10-17T03:10:50.939Z,151.17
2022-10-17T03:13:19.255Z,91.80
2022-10-17T03:15:47.334Z,116.87
2022-10-17T03:18:15.363Z,148.23
2022-10-17T03:20:43.466Z,97.27
2022-10-17T03:23:12.787Z,148.70
2022-10-17T03:25:40.851Z,113.00
2022-10-17T03:28:08.918Z,115.13
2022-10-17T03:30:39.644Z,96.00
2022-10-17T03:33:07.679Z,96.60
2022-10-17T03:35:35.651Z,162.13
2022-10-17T03:38:03.671Z,142.10
2022-10-17T03:40:33.059Z,117.10
2022-10-17T03:43:01.082Z,151.50
2022-10-17T03:45:29.528Z,134.63
2022-10-17T03:48:00.002Z,98.73
2022-10-17T03:50:28.213Z,110.27
2022-10-17T03:52:56.285Z,118.87
2022-10-17T03:55:25.234Z,138.40
2022-10-17T03:57:54.690Z,136.20
2022-10-17T04:00:22.823Z,95.23
2022-10-17T04:02:50.885Z,143.20
2022-10-17T04:05:18.921Z,126.30
2022-10-17T04:07:46.966Z,95.30
2022-10-17T04:10:14.993Z,91.33
2022-10-17T04:12:43.003Z,133.60
2022-10-17T04:15:13.059Z,97.13
2022-10-17T04:17:41.211Z,86.20
2022-10-17T04:20:10.575Z,95.93
2022-10-17T04:22:38.606Z,85.87
2022-10-17T04:25:08.099Z,98.33
2022-10-17T04:27:36.187Z,94.73
2022-10-17T04:30:04.535Z,98.23
2022-10-17T04:32:37.956Z,94.13
2022-10-17T04:35:06.845Z,103.47
2022-10-17T04:37:34.896Z,139.80
2022-10-17T04:40:03.235Z,99.10
2022-10-17T04:42:31.559Z,93.63
2022-10-17T04:44:59.871Z,103.27
2022-10-17T04:47:27.835Z,108.70
2022-10-17T04:49:57.191Z,98.57
2022-10-17T04:52:25.666Z,96.03
2022-10-17T04:54:53.696Z,94.03
2022-10-17T04:57:21.844Z,84.80
2022-10-17T04:59:49.919Z,74.73
2022-10-17T05:02:18.147Z,65.50
2022-10-17T05:04:46.127Z,65.70
2022-10-17T05:07:15.503Z,90.83
2022-10-17T05:09:47.062Z,75.40
2022-10-17T05:12:15.028Z,69.87
2022-10-17T05:14:43.443Z,124.20
2022-10-17T05:17:11.402Z,96.20
2022-10-17T05:19:39.412Z,81.87
2022-10-17T05:22:07.567Z,91.33
2022-10-17T05:24:37.197Z,72.27
2022-10-17T05:27:05.355Z,81.57
2022-10-17T05:29:33.356Z,121.93
2022-10-17T05:34:30.459Z,81.83
2022-10-17T05:36:58.995Z,79.40
2022-10-17T05:39:27.133Z,102.57
2022-10-17T05:41:56.845Z,99.80
2022-10-17T05:44:24.893Z,83.17
2022-10-17T05:46:52.937Z,75.63
2022-10-17T05:49:32.556Z,82.83
2022-10-17T05:52:08.085Z,85.63
2022-10-17T05:54:36.066Z,70.97
2022-10-17T05:57:05.755Z,76.23
2022-10-17T05:59:33.747Z,101.60
2022-10-17T06:02:01.880Z,99.00
2022-10-17T06:04:29.880Z,95.37
2022-10-17T06:06:57.954Z,108.70
2022-10-17T06:09:26.015Z,82.77
2022-10-17T06:11:53.997Z,104.47
2022-10-17T06:14:23.687Z,87.77
2022-10-17T06:16:51.644Z,96.27
2022-10-17T06:19:20.438Z,86.07
2022-10-17T06:21:48.403Z,82.37
2022-10-17T06:24:16.707Z,109.10
2022-10-17T06:26:44.847Z,86.00
2022-10-17T06:29:13.099Z,110.40
2022-10-17T06:31:42.838Z,100.13
2022-10-17T06:34:10.819Z,97.13
2022-10-17T06:36:38.818Z,86.80
2022-10-17T06:39:06.925Z,81.03
2022-10-17T06:41:34.876Z,88.97
2022-10-17T06:44:08.386Z,101.87
2022-10-17T06:46:36.432Z,94.83
2022-10-17T06:49:06.125Z,87.37
2022-10-17T06:51:36.951Z,89.73
2022-10-17T06:54:05.101Z,92.93
2022-10-17T06:56:33.169Z,89.90
2022-10-17T06:59:01.304Z,85.13
2022-10-17T07:01:29.906Z,101.73
2022-10-17T07:03:58.521Z,95.07
2022-10-17T07:06:28.200Z,83.83
2022-10-17T07:08:56.474Z,113.27
2022-10-17T07:11:25.809Z,124.73
2022-10-17T07:13:54.079Z,109.27
2022-10-17T07:16:22.380Z,97.40
2022-10-17T07:18:51.300Z,85.83
2022-10-17T07:21:19.772Z,97.30
2022-10-17T07:23:49.681Z,96.37
2022-10-17T07:26:19.472Z,109.23
2022-10-17T07:28:49.367Z,92.43
2022-10-17T07:31:19.200Z,102.67
2022-10-17T07:36:20.586Z,101.03
2022-10-17T07:38:50.075Z,128.17
2022-10-17T07:41:21.644Z,85.93
2022-10-17T07:43:50.325Z,88.87
2022-10-17T07:46:18.342Z,89.60
2022-10-17T07:48:46.391Z,87.43
2022-10-17T07:51:14.383Z,108.23
2022-10-17T07:53:46.360Z,118.03
2022-10-17T07:56:18.238Z,91.47
2022-10-17T07:58:48.163Z,90.27
2022-10-17T08:01:16.415Z,100.77
2022-10-17T08:03:45.382Z,90.80
2022-10-17T08:06:14.034Z,89.40
2022-10-17T08:08:42.791Z,90.57
2022-10-17T08:11:12.644Z,88.03
2022-10-17T08:13:43.480Z,89.03
2022-10-17T08:16:14.181Z,83.63
2022-10-17T08:18:44.239Z,90.47
2022-10-17T08:21:14.067Z,94.87
2022-10-17T08:23:42.344Z,104.93
2022-10-17T08:26:13.248Z,93.13
2022-10-17T08:28:42.845Z,97.80
2022-10-17T08:31:13.226Z,99.47
2022-10-17T08:33:42.010Z,88.30
2022-10-17T08:36:10.957Z,114.87
2022-10-17T08:38:43.134Z,89.27
2022-10-17T08:41:19.938Z,89.47
2022-10-17T08:43:59.758Z,90.20
2022-10-17T08:46:32.518Z,85.87
2022-10-17T08:49:02.513Z,94.40
2022-10-17T08:51:35.075Z,103.60
2022-10-17T08:54:10.399Z,95.90
2022-10-17T08:56:48.530Z,100.27
2022-10-17T08:59:22.650Z,92.30
2022-10-17T09:01:57.958Z,86.63
2022-10-17T09:04:50.684Z,94.40
2022-10-17T09:07:28.822Z,89.63
2022-10-17T09:10:06.144Z,84.23
2022-10-17T09:12:42.660Z,97.63
2022-10-17T09:15:35.420Z,115.17
2022-10-17T09:18:10.630Z,93.87
2022-10-17T09:20:41.945Z,102.00
2022-10-17T09:23:17.054Z,88.60
2022-10-17T09:25:47.563Z,87.57
2022-10-17T09:28:20.954Z,93.53
2022-10-17T09:30:57.329Z,77.17
2022-10-17T09:33:35.934Z,80.03
2022-10-17T09:36:14.527Z,91.63
2022-10-17T09:38:45.101Z,94.67
2022-10-17T09:44:19.248Z,98.00
2022-10-17T09:47:29.648Z,97.40
2022-10-17T09:49:58.865Z,86.83
2022-10-17T09:52:32.803Z,83.33
2022-10-17T09:55:05.439Z,83.27
2022-10-17T09:57:56.849Z,92.40
2022-10-17T10:00:27.046Z,78.13
2022-10-17T10:06:03.559Z,88.13
2022-10-17T10:08:49.632Z,84.47
2022-10-17T10:11:18.220Z,87.10
2022-10-17T10:13:48.906Z,104.63
2022-10-17T10:16:22.026Z,85.13
2022-10-17T10:18:51.456Z,85.23
2022-10-17T10:21:22.545Z,88.83
2022-10-17T10:24:13.342Z,88.13
2022-10-17T10:26:44.778Z,91.60
2022-10-17T10:29:24.708Z,75.73
2022-10-17T10:31:54.657Z,108.80
2022-10-17T10:34:26.530Z,101.53
2022-10-17T10:37:03.171Z,83.93
2022-10-17T10:39:37.423Z,74.90
2022-10-17T10:42:08.584Z,78.63
2022-10-17T10:44:42.621Z,83.27
2022-10-17T10:47:23.776Z,76.90
2022-10-17T10:50:18.394Z,77.30
2022-10-17T10:52:56.356Z,76.83
2022-10-17T10:55:30.643Z,75.27
2022-10-17T10:58:04.841Z,69.13
2022-10-17T11:00:35.113Z,75.83
2022-10-17T11:03:12.832Z,73.20
2022-10-17T11:05:45.837Z,66.70
2022-10-17T11:08:23.146Z,70.90
2022-10-17T11:11:04.639Z,69.97
2022-10-17T11:13:37.380Z,61.40
2022-10-17T11:16:23.305Z,66.10
2022-10-17T11:18:57.788Z,59.47
2022-10-17T11:21:36.395Z,56.10
2022-10-17T11:24:13.637Z,53.40
2022-10-17T11:26:46.187Z,52.13
2022-10-17T11:29:14.688Z,48.70
2022-10-17T11:31:47.667Z,49.93
2022-10-17T11:34:22.100Z,52.13
2022-10-17T11:36:54.127Z,46.83
2022-10-17T11:39:30.460Z,46.37
2022-10-17T11:42:04.308Z,47.23
2022-10-17T11:44:36.343Z,45.17
2022-10-17T11:47:08.782Z,47.63
2022-10-17T11:49:41.045Z,52.40
2022-10-17T11:52:54.908Z,50.63
2022-10-17T11:55:23.105Z,45.87
2022-10-17T11:58:01.844Z,52.83
2022-10-17T12:00:42.777Z,54.60
2022-10-17T12:03:26.872Z,40.13
2022-10-17T12:06:01.157Z,56.13
2022-10-17T12:08:35.451Z,46.30
2022-10-17T12:11:12.136Z,47.20
2022-10-17T12:13:53.068Z,54.47
2022-10-17T12:16:51.239Z,46.77
2022-10-17T12:19:30.732Z,52.80
2022-10-17T12:22:15.340Z,40.23
2022-10-17T12:24:45.644Z,45.00
2022-10-17T12:27:32.433Z,49.70
2022-10-17T12:30:02.383Z,65.70
2022-10-17T12:32:46.885Z,49.70
2022-10-17T12:35:24.229Z,58.17
2022-10-17T12:38:03.950Z,53.00
2022-10-17T12:40:57.676Z,43.23
2022-10-17T12:43:52.657Z,44.43
2022-10-17T12:46:50.998Z,47.77
2022-10-17T12:49:50.388Z,44.67
2022-10-17T12:52:54.808Z,49.57
2022-10-17T12:55:25.926Z,43.53
2022-10-17T12:57:58.652Z,49.17
2022-10-17T13:00:36.989Z,47.97
2022-10-17T13:03:11.766Z,48.63
2022-10-17T13:05:42.802Z,55.83
2022-10-17T13:08:18.778Z,44.43
2022-10-17T13:10:52.408Z,45.33
2022-10-17T13:13:23.488Z,46.10
2022-10-17T13:15:54.470Z,49.53
2022-10-17T13:18:25.187Z,50.03
2022-10-17T13:21:00.994Z,54.63
2022-10-17T13:23:33.346Z,44.37
2022-10-17T13:26:14.976Z,49.07
2022-10-17T13:28:43.258Z,49.23
2022-10-17T13:31:30.687Z,52.40
2022-10-17T13:34:00.328Z,45.90
2022-10-17T13:36:30.496Z,46.20
2022-10-17T13:39:00.958Z,50.90
2022-10-17T13:41:35.863Z,49.10
2022-10-17T13:44:10.509Z,46.77
2022-10-17T13:46:41.047Z,46.23
2022-10-17T13:49:23.312Z,49.63
2022-10-17T13:51:55.463Z,51.57
2022-10-17T13:54:40.149Z,45.53
2022-10-17T13:57:19.435Z,44.73
2022-10-17T13:59:49.788Z,45.23
2022-10-17T14:02:26.937Z,54.83
2022-10-17T14:05:16.844Z,44.90
2022-10-17T14:08:09.965Z,46.57
2022-10-17T14:10:37.787Z,43.57
2022-10-17T14:13:08.160Z,48.00
2022-10-17T14:15:37.748Z,52.30
2022-10-17T14:18:11.701Z,56.07
2022-10-17T14:21:25.561Z,63.37
2022-10-17T14:23:36.598Z,47.07
2022-10-17T14:26:16.969Z,44.53
2022-10-17T14:28:48.399Z,41.50
2022-10-17T14:31:26.732Z,39.30
2022-10-17T14:33:56.639Z,44.37
2022-10-17T14:36:43.975Z,42.60
2022-10-17T14:39:25.040Z,49.87
2022-10-17T14:41:53.818Z,40.33
2022-10-17T14:44:26.855Z,38.13
2022-10-17T14:47:00.203Z,62.37
2022-10-17T14:49:38.582Z,49.70
2022-10-17T14:52:32.159Z,42.80
2022-10-17T14:55:13.933Z,43.07
2022-10-17T14:57:46.643Z,41.57
2022-10-17T15:00:16.940Z,46.67
2022-10-17T15:02:46.036Z,39.70
2022-10-17T15:05:17.199Z,40.43
2022-10-17T15:07:45.584Z,43.53
2022-10-17T15:10:28.409Z,45.50
2022-10-17T15:12:59.188Z,41.03
2022-10-17T15:15:33.340Z,41.13
2022-10-17T15:18:02.206Z,44.87
2022-10-17T15:20:32.192Z,36.27
2022-10-17T15:23:02.026Z,48.43
2022-10-17T15:25:32.348Z,42.13
2022-10-17T15:28:00.367Z,37.17
2022-10-17T15:30:32.043Z,42.30
2022-10-17T15:33:00.846Z,41.73
2022-10-17T15:35:31.296Z,36.87
2022-10-17T15:37:59.955Z,34.03
2022-10-17T15:40:30.381Z,35.47
2022-10-17T15:42:58.992Z,40.87
2022-10-17T15:45:27.131Z,38.53
2022-10-17T15:47:57.404Z,35.77
2022-10-17T15:50:25.426Z,36.47
2022-10-17T15:52:54.851Z,37.83
2022-10-17T15:55:23.111Z,38.50
2022-10-17T15:57:51.199Z,38.53
2022-10-17T16:00:21.116Z,35.50
2022-10-17T16:02:50.389Z,37.67
2022-10-17T16:05:25.446Z,42.83
2022-10-17T16:07:55.776Z,56.73
2022-10-17T16:10:25.510Z,42.00
2022-10-17T16:12:53.903Z,45.87
2022-10-17T16:15:23.918Z,47.33
2022-10-17T16:17:53.035Z,40.10
2022-10-17T16:20:21.720Z,38.90
2022-10-17T16:22:50.409Z,35.80
2022-10-17T16:25:25.204Z,36.40
2022-10-17T16:27:56.336Z,42.57
2022-10-17T16:30:26.310Z,38.63
2022-10-17T16:32:55.463Z,37.77
2022-10-17T16:35:26.567Z,38.87
2022-10-17T16:37:54.757Z,39.50
2022-10-17T16:40:24.315Z,40.80
2022-10-17T16:42:52.396Z,39.60
2022-10-17T16:45:22.433Z,49.57
2022-10-17T16:47:52.974Z,37.63
2022-10-17T16:50:21.075Z,43.67
2022-10-17T16:52:49.035Z,46.67
2022-10-17T16:55:18.804Z,40.90
2022-10-17T16:57:49.898Z,39.33
2022-10-17T17:00:18.480Z,40.00
2022-10-17T17:02:49.227Z,40.60
2022-10-17T17:05:17.962Z,38.77
2022-10-17T17:07:48.998Z,40.20
2022-10-17T17:10:17.191Z,39.90
2022-10-17T17:12:45.311Z,40.07
2022-10-17T17:15:17.907Z,42.10
2022-10-17T17:17:52.403Z,39.90
2022-10-17T17:20:23.179Z,38.83
2022-10-17T17:22:52.582Z,46.10
2022-10-17T17:25:21.239Z,39.17
2022-10-17T17:27:49.629Z,51.20
2022-10-17T17:30:19.844Z,38.30
2022-10-17T17:32:54.199Z,38.87
2022-10-17T17:35:41.209Z,38.93
2022-10-17T17:38:10.962Z,38.40
2022-10-17T17:40:50.368Z,36.43
2022-10-17T17:43:23.262Z,39.47
2022-10-17T17:45:53.077Z,36.80
2022-10-17T17:48:21.718Z,39.30
2022-10-17T17:50:50.277Z,42.83
2022-10-17T17:53:18.849Z,39.93
2022-10-17T17:55:47.054Z,40.00
2022-10-17T17:58:15.406Z,39.93
2022-10-17T18:00:44.526Z,47.37
2022-10-17T18:03:16.098Z,40.40
2022-10-17T18:05:44.455Z,40.33
2022-10-17T18:08:13.020Z,42.43
2022-10-17T18:10:41.084Z,48.33
2022-10-17T18:13:09.148Z,37.30
2022-10-17T18:15:38.388Z,38.67
2022-10-17T18:18:06.871Z,43.43
2022-10-17T18:20:40.664Z,42.77
2022-10-17T18:23:09.153Z,39.03
2022-10-17T18:25:38.340Z,39.90
2022-10-17T18:28:08.155Z,39.97
2022-10-17T18:30:38.703Z,38.07
2022-10-17T18:33:13.005Z,34.77
2022-10-17T18:35:42.399Z,40.23
2022-10-17T18:38:11.218Z,34.83
2022-10-17T18:40:39.367Z,40.07
2022-10-17T18:43:07.440Z,38.53
2022-10-17T18:45:35.398Z,43.67
2022-10-17T18:48:03.765Z,36.83
2022-10-17T18:50:31.758Z,35.57
2022-10-17T18:53:01.085Z,39.90
2022-10-17T18:55:29.265Z,42.30
2022-10-17T18:57:57.339Z,38.27
2022-10-17T19:00:25.443Z,42.87
2022-10-17T19:02:53.482Z,42.30
2022-10-17T19:05:21.433Z,39.47
2022-10-17T19:07:50.202Z,42.27
2022-10-17T19:10:19.618Z,33.03
2022-10-17T19:12:47.641Z,36.70
2022-10-17T19:15:15.797Z,38.43
2022-10-17T19:17:43.816Z,39.10
2022-10-17T19:20:15.654Z,41.47
2022-10-17T19:22:43.629Z,43.10
2022-10-17T19:25:11.923Z,43.17
2022-10-17T19:27:41.229Z,49.17
2022-10-17T19:30:10.718Z,39.03
2022-10-17T19:32:38.667Z,39.23
2022-10-17T19:35:07.645Z,51.27
2022-10-17T19:37:35.612Z,41.30
2022-10-17T19:40:03.904Z,39.93
2022-10-17T19:42:32.215Z,41.40
2022-10-17T19:45:01.943Z,40.57
2022-10-17T19:47:30.605Z,42.53
2022-10-17T19:49:58.612Z,44.93
2022-10-17T19:52:26.838Z,42.17
2022-10-17T19:54:54.925Z,38.83
2022-10-17T19:57:22.967Z,40.17
2022-10-17T19:59:53.672Z,41.73
2022-10-17T20:02:25.390Z,40.70
2022-10-17T20:05:00.229Z,39.23
2022-10-17T20:07:34.555Z,39.27
2022-10-17T20:10:02.543Z,39.00
2022-10-17T20:12:30.668Z,48.20
2022-10-17T20:14:59.008Z,38.73
2022-10-17T20:17:28.389Z,38.00
2022-10-17T20:19:56.933Z,35.40
2022-10-17T20:22:25.622Z,51.13
2022-10-17T20:24:53.581Z,42.23
2022-10-17T20:27:25.537Z,37.03
2022-10-17T20:29:55.760Z,35.53
2022-10-17T20:32:23.684Z,37.57
2022-10-17T20:34:53.012Z,40.10
2022-10-17T20:37:21.783Z,51.40
2022-10-17T20:39:59.989Z,40.00
2022-10-17T20:42:38.743Z,51.63
2022-10-17T20:45:07.793Z,34.27
2022-10-17T20:47:46.071Z,30.70
2022-10-17T20:50:16.954Z,29.60
2022-10-17T20:52:44.920Z,31.37
2022-10-17T20:55:12.861Z,39.17
2022-10-17T20:57:40.863Z,28.60
2022-10-17T21:00:10.107Z,29.00
2022-10-17T21:02:38.218Z,35.97
2022-10-17T21:05:06.960Z,31.13
2022-10-17T21:07:36.566Z,31.50
2022-10-17T21:10:30.593Z,32.10
2022-10-17T21:12:54.408Z,32.80
2022-10-17T21:15:22.557Z,35.10
2022-10-17T21:17:50.587Z,37.30
2022-10-17T21:20:18.896Z,41.37
2022-10-17T21:22:48.319Z,32.40
2022-10-17T21:25:16.677Z,36.03
2022-10-17T21:27:44.663Z,31.23
2022-10-17T21:30:12.903Z,32.73
2022-10-17T21:32:51.374Z,33.30
2022-10-17T21:35:19.813Z,33.63
2022-10-17T21:37:49.155Z,32.20
2022-10-17T21:40:17.239Z,30.77
2022-10-17T21:42:45.342Z,31.50
2022-10-17T21:45:15.801Z,33.03
2022-10-17T21:48:11.824Z,30.43
2022-10-17T21:50:36.363Z,32.17
2022-10-17T21:53:05.777Z,31.50
2022-10-17T21:55:33.727Z,27.53
2022-10-17T21:58:01.822Z,31.93
2022-10-17T22:00:29.833Z,32.23
2022-10-17T22:02:57.788Z,30.30
2022-10-17T22:05:26.015Z,28.93
2022-10-17T22:07:54.020Z,32.17
2022-10-17T22:10:23.439Z,33.80
2022-10-17T22:12:51.627Z,25.37
2022-10-17T22:15:19.690Z,31.60
2022-10-17T22:17:47.641Z,26.13
2022-10-17T22:20:15.813Z,26.87
2022-10-17T22:22:43.863Z,28.87
2022-10-17T22:25:12.389Z,26.03
2022-10-17T22:28:02.263Z,34.03
2022-10-17T22:30:49.246Z,34.73
2022-10-17T22:33:37.473Z,28.07
2022-10-17T22:36:25.131Z,27.67
2022-10-17T22:39:12.699Z,29.57
2022-10-17T22:41:59.862Z,36.10
2022-10-17T22:44:48.050Z,31.80
2022-10-17T22:47:35.070Z,28.20
2022-10-17T22:50:23.368Z,32.20
2022-10-17T22:53:12.070Z,29.33
2022-10-17T22:55:40.155Z,27.27
2022-10-17T22:58:13.070Z,26.77
2022-10-17T23:00:42.403Z,30.93
2022-10-17T23:03:10.431Z,26.10
2022-10-17T23:05:38.399Z,24.60
2022-10-17T23:08:06.622Z,26.10
2022-10-17T23:10:35.347Z,28.30
2022-10-17T23:13:03.489Z,25.23
2022-10-17T23:15:31.785Z,22.70
2022-10-17T23:18:01.769Z,22.67
2022-10-17T23:20:30.229Z,24.47
2022-10-17T23:22:58.611Z,25.27
2022-10-17T23:25:27.047Z,24.63
2022-10-17T23:27:55.164Z,21.87
2022-10-17T23:30:23.184Z,24.03
2022-10-17T23:32:51.263Z,19.07
2022-10-17T23:35:20.692Z,19.13
2022-10-17T23:37:48.607Z,20.63
2022-10-17T23:40:16.642Z,22.30
2022-10-17T23:42:45.006Z,20.37
2022-10-17T23:45:13.508Z,21.50
2022-10-17T23:47:41.490Z,21.53
2022-10-17T23:50:09.795Z,22.60
2022-10-17T23:52:39.157Z,22.47
2022-10-17T23:55:08.740Z,25.87
2022-10-17T23:57:36.816Z,24.83
